createdAt,value
2022-10-22T05:54:35.674Z,82.51
2022-10-22T06:30:31.715Z,84.35
2022-10-22T06:32:58.151Z,84.57
2022-10-22T06:35:24.525Z,84.48
2022-10-22T06:38:08.088Z,83.85
2022-10-22T06:41:25.768Z,83.74
2022-10-22T06:43:57.169Z,83.80
2022-10-22T06:46:27.211Z,83.51
2022-10-22T06:48:58.438Z,83.22
2022-10-22T06:51:25.556Z,83.36
2022-10-22T06:53:55.416Z,83.52
2022-10-22T06:56:24.523Z,83.68
2022-10-22T06:58:52.401Z,83.54
2022-10-22T07:01:48.695Z,83.62
2022-10-22T07:04:21.236Z,83.66
2022-10-22T07:06:56.763Z,83.61
2022-10-22T07:09:23.236Z,83.64
2022-10-22T07:11:55.872Z,83.60
2022-10-22T07:14:22.328Z,83.57
2022-10-22T07:16:50.427Z,84.27
2022-10-22T07:19:16.876Z,84.19
2022-10-22T07:21:43.323Z,84.47
2022-10-22T07:24:09.763Z,84.47
2022-10-22T07:26:36.803Z,84.07
2022-10-22T07:29:04.339Z,84.00
2022-10-22T07:31:40.695Z,83.71
2022-10-22T07:34:07.632Z,83.18
2022-10-22T07:36:34.106Z,83.18
2022-10-22T07:39:00.684Z,83.45
2022-10-22T07:41:28.698Z,82.91
2022-10-22T07:43:55.735Z,83.45
2022-10-22T07:46:24.731Z,83.71
2022-10-22T07:48:51.191Z,84.18
2022-10-22T07:51:17.722Z,84.73
2022-10-22T07:53:44.182Z,85.02
2022-10-22T07:56:35.870Z,85.71
2022-10-22T08:01:33.638Z,86.27
2022-10-22T08:04:00.160Z,86.75
2022-10-22T08:06:36.509Z,86.78
2022-10-22T08:09:04.622Z,87.16
2022-10-22T08:11:33.368Z,87.49
2022-10-22T08:13:59.915Z,88.05
2022-10-22T08:16:26.448Z,87.80
2022-10-22T08:18:53.196Z,88.39
2022-10-22T08:21:19.611Z,88.48
2022-10-22T08:23:45.985Z,88.69
2022-10-22T08:26:12.392Z,89.11
2022-10-22T08:28:38.900Z,89.60
2022-10-22T08:31:07.400Z,89.82
2022-10-22T08:33:42.391Z,89.86
2022-10-22T08:36:09.308Z,88.30
2022-10-22T08:38:36.224Z,88.24
2022-10-22T08:41:14.560Z,88.98
2022-10-22T08:44:18.176Z,88.73
2022-10-22T08:47:20.067Z,87.27
2022-10-22T08:49:48.891Z,86.89
2022-10-22T08:52:17.436Z,85.62
2022-10-22T08:54:53.665Z,85.22
2022-10-22T08:57:55.277Z,83.94
2022-10-22T09:00:25.842Z,82.90
2022-10-22T09:03:04.380Z,82.47
2022-10-22T09:05:46.934Z,81.88
2022-10-22T09:08:15.513Z,82.14
2022-10-22T09:10:46.783Z,82.53
2022-10-22T09:13:38.614Z,82.36
2022-10-22T09:19:20.041Z,82.57
2022-10-22T09:21:53.352Z,82.55
2022-10-22T09:24:53.454Z,82.99
2022-10-22T09:27:29.002Z,82.79
2022-10-22T09:30:07.581Z,82.78
2022-10-22T09:32:34.117Z,83.02
2022-10-22T09:35:01.150Z,83.21
2022-10-22T09:38:07.814Z,83.15
2022-10-22T09:40:43.836Z,83.42
2022-10-22T09:43:18.890Z,83.40
2022-10-22T09:46:17.564Z,83.21
2022-10-22T09:49:02.197Z,83.06
2022-10-22T09:52:25.145Z,82.93
2022-10-22T09:55:28.159Z,82.94
2022-10-22T09:57:56.068Z,82.41
2022-10-22T10:00:24.922Z,82.49
2022-10-22T10:02:56.350Z,82.20
2022-10-22T10:05:44.055Z,82.25
2022-10-22T10:08:25.462Z,82.37
2022-10-22T10:11:03.118Z,82.15
2022-10-22T10:13:38.583Z,82.21
2022-10-22T10:16:27.483Z,82.25
2022-10-22T10:19:07.408Z,82.05
2022-10-22T10:21:38.847Z,81.48
2022-10-22T10:24:17.720Z,81.27
2022-10-22T10:26:55.386Z,80.61
2022-10-22T10:29:54.656Z,80.01
2022-10-22T10:33:40.620Z,80.07
2022-10-22T10:36:31.781Z,80.34
2022-10-22T10:39:10.145Z,80.03
2022-10-22T10:42:01.305Z,80.59
2022-10-22T10:44:59.240Z,79.85
2022-10-22T10:48:33.912Z,79.27
2022-10-22T10:51:23.460Z,78.99
2022-10-22T10:54:16.856Z,78.59
2022-10-22T10:57:14.218Z,77.91
2022-10-22T11:00:15.913Z,78.20
2022-10-22T11:03:04.658Z,77.93
2022-10-22T11:06:08.023Z,77.49
2022-10-22T11:08:43.100Z,77.46
2022-10-22T11:11:19.809Z,77.44
2022-10-22T11:14:14.902Z,77.14
2022-10-22T11:17:14.445Z,76.81
2022-10-22T11:19:51.552Z,76.52
2022-10-22T11:25:42.716Z,75.42
2022-10-22T11:28:28.067Z,75.44
2022-10-22T11:31:30.072Z,75.09
2022-10-22T11:34:32.723Z,74.64
2022-10-22T11:37:10.004Z,74.67
2022-10-22T11:45:50.221Z,74.03
2022-10-22T11:48:36.777Z,74.11
2022-10-22T11:51:04.194Z,74.06
2022-10-22T11:53:31.760Z,73.84
2022-10-22T11:56:22.687Z,73.33
2022-10-22T11:58:52.307Z,73.41
2022-10-22T12:02:01.211Z,73.47
2022-10-22T12:04:42.007Z,73.51
2022-10-22T12:07:41.193Z,73.74
2022-10-22T12:10:53.068Z,72.81
2022-10-22T12:13:32.779Z,72.96
2022-10-22T12:16:32.215Z,73.01
2022-10-22T12:19:41.849Z,71.56
2022-10-22T12:22:52.057Z,71.93
2022-10-22T12:25:26.500Z,72.32
2022-10-22T12:28:02.482Z,72.12
2022-10-22T12:30:55.175Z,71.58
2022-10-22T12:33:22.793Z,71.29
2022-10-22T12:35:52.844Z,71.90
2022-10-22T12:38:21.982Z,72.67
2022-10-22T12:40:50.735Z,72.97
2022-10-22T12:43:27.709Z,72.63
2022-10-22T12:46:16.341Z,71.78
2022-10-22T12:48:44.316Z,71.58
2022-10-22T12:51:16.979Z,70.34
2022-10-22T12:53:51.159Z,70.76
2022-10-22T12:56:26.797Z,70.48
2022-10-22T13:02:37.889Z,69.87
2022-10-22T13:05:19.724Z,69.00
2022-10-22T13:07:52.108Z,69.81
2022-10-22T13:10:24.119Z,69.59
2022-10-22T13:12:55.091Z,69.96
2022-10-22T13:15:35.134Z,70.39
2022-10-22T13:18:40.141Z,69.85
2022-10-22T13:21:35.283Z,70.17
2022-10-22T13:24:48.085Z,70.35
2022-10-22T13:27:23.264Z,70.34
2022-10-22T13:30:00.859Z,69.76
2022-10-22T13:32:30.612Z,69.86
2022-10-22T13:34:58.755Z,70.05
2022-10-22T13:37:26.585Z,69.94
2022-10-22T13:39:53.388Z,70.08
2022-10-22T13:42:19.890Z,70.46
2022-10-22T13:44:46.463Z,69.80
2022-10-22T13:47:27.236Z,69.39
2022-10-22T13:52:36.150Z,69.14
2022-10-22T13:55:13.275Z,69.79
2022-10-22T13:57:39.683Z,70.08
2022-10-22T14:00:06.860Z,70.53
2022-10-22T14:02:39.242Z,69.85
2022-10-22T14:05:09.315Z,70.08
2022-10-22T14:07:36.639Z,69.97
2022-10-22T14:10:06.672Z,69.70
2022-10-22T14:12:33.315Z,69.50
2022-10-22T14:14:59.690Z,70.11
2022-10-22T14:17:26.507Z,70.21
2022-10-22T14:19:52.955Z,70.54
2022-10-22T14:22:19.992Z,70.88
2022-10-22T14:24:47.021Z,71.03
2022-10-22T14:27:14.731Z,71.33
2022-10-22T14:29:41.554Z,72.28
2022-10-22T14:32:20.109Z,72.46
2022-10-22T14:34:46.813Z,72.69
2022-10-22T14:37:19.471Z,72.49
2022-10-22T14:39:53.147Z,72.67
2022-10-22T14:42:20.063Z,72.80
2022-10-22T14:44:46.844Z,73.07
2022-10-22T14:47:13.931Z,73.33
2022-10-22T14:49:40.328Z,73.95
2022-10-22T14:52:09.500Z,74.24
2022-10-22T14:54:38.269Z,75.15
2022-10-22T14:57:05.524Z,75.37
2022-10-22T14:59:31.969Z,75.28
2022-10-22T15:01:58.417Z,75.70
2022-10-22T15:04:26.916Z,75.83
2022-10-22T15:06:56.244Z,76.06
2022-10-22T15:09:23.974Z,75.86
2022-10-22T15:11:50.949Z,76.13
2022-10-22T15:14:17.344Z,75.83
2022-10-22T15:16:43.734Z,75.43
2022-10-22T15:19:11.096Z,75.57
2022-10-22T15:21:37.539Z,75.89
2022-10-22T15:24:04.660Z,76.02
2022-10-22T15:26:31.099Z,75.69
2022-10-22T15:28:57.623Z,76.21
2022-10-22T15:31:49.060Z,76.06
2022-10-22T15:34:24.670Z,76.43
2022-10-22T15:36:51.492Z,76.38
2022-10-22T15:39:17.904Z,77.28
2022-10-22T15:41:46.897Z,77.41
2022-10-22T15:44:16.267Z,77.87
2022-10-22T15:46:44.239Z,78.09
2022-10-22T15:49:10.937Z,78.50
2022-10-22T15:51:37.401Z,78.68
2022-10-22T15:54:09.266Z,78.84
2022-10-22T15:56:37.016Z,79.10
2022-10-22T15:59:04.222Z,79.94
2022-10-22T16:01:32.785Z,80.41
2022-10-22T16:04:01.241Z,80.80
2022-10-22T16:06:28.460Z,81.07
2022-10-22T16:08:57.555Z,81.36
2022-10-22T16:11:24.377Z,81.56
2022-10-22T16:13:56.336Z,82.15
2022-10-22T16:16:33.544Z,82.29
2022-10-22T16:19:00.269Z,82.31
2022-10-22T16:21:27.641Z,82.29
2022-10-22T16:23:54.409Z,82.75
2022-10-22T16:26:22.140Z,82.95
2022-10-22T16:28:48.867Z,83.21
2022-10-22T16:31:18.167Z,83.44
2022-10-22T16:33:47.745Z,83.64
2022-10-22T16:36:19.425Z,83.46
2022-10-22T16:38:46.673Z,83.92
2022-10-22T16:41:18.559Z,83.96
2022-10-22T16:43:48.507Z,84.06
2022-10-22T17:02:37.467Z,84.92
2022-10-22T17:05:50.539Z,85.51
2022-10-22T17:09:03.814Z,85.46
2022-10-22T17:12:21.582Z,85.71
2022-10-22T17:15:37.897Z,86.03
2022-10-22T17:18:09.539Z,86.10
2022-10-22T17:20:52.965Z,86.58
2022-10-22T17:27:59.731Z,86.93
2022-10-22T17:31:09.619Z,87.24
2022-10-22T17:34:23.871Z,87.72
2022-10-22T17:41:31.159Z,87.74
2022-10-22T17:44:13.648Z,87.36
2022-10-22T17:46:56.857Z,87.41
2022-10-22T17:49:29.942Z,87.07
2022-10-22T17:56:46.962Z,86.81
2022-10-22T17:59:53.740Z,86.63
2022-10-22T18:05:24.722Z,85.60
2022-10-22T18:11:10.013Z,86.00
2022-10-22T18:13:41.415Z,85.87
2022-10-22T18:16:16.765Z,85.77
2022-10-22T18:18:50.933Z,85.54
2022-10-22T18:28:44.737Z,85.09
2022-10-22T18:32:23.427Z,84.93
2022-10-22T18:35:21.119Z,84.68
2022-10-22T18:38:30.793Z,84.68
2022-10-22T18:51:24.186Z,84.30
2022-10-22T18:54:43.677Z,84.79
2022-10-22T18:58:19.558Z,84.75
2022-10-22T19:00:48.035Z,84.75
2022-10-22T19:03:26.383Z,84.85
2022-10-22T19:06:25.220Z,84.99
2022-10-22T19:09:31.715Z,85.47
2022-10-22T19:12:02.259Z,85.26
2022-10-22T19:15:02.141Z,85.30
2022-10-22T19:17:59.679Z,85.61
2022-10-22T19:20:31.990Z,85.69
2022-10-22T19:23:51.719Z,85.57
2022-10-22T19:27:28.088Z,85.62
2022-10-22T19:30:22.179Z,85.42
2022-10-22T19:33:18.941Z,85.74
2022-10-22T19:35:52.391Z,85.48
2022-10-22T19:46:59.947Z,85.54
2022-10-22T19:50:16.891Z,85.21
2022-10-22T19:53:01.514Z,85.67
2022-10-22T19:55:30.056Z,85.38
2022-10-22T19:58:02.739Z,85.67
2022-10-22T20:04:06.503Z,85.86
2022-10-22T20:07:49.999Z,85.85
2022-10-22T20:10:21.695Z,85.77
2022-10-22T20:12:52.735Z,85.78
2022-10-22T20:15:33.242Z,85.74
2022-10-22T20:18:45.215Z,85.73
2022-10-22T20:21:39.792Z,85.92
2022-10-22T20:24:26.883Z,85.49
2022-10-22T20:27:07.428Z,85.67
2022-10-22T20:29:42.684Z,85.34
2022-10-22T20:32:28.542Z,85.15
2022-10-22T20:35:22.157Z,84.96
2022-10-22T20:48:26.637Z,85.17
2022-10-22T20:51:31.722Z,85.17
2022-10-22T20:54:20.233Z,85.27
2022-10-22T21:12:13.640Z,86.11
2022-10-22T21:14:56.206Z,86.19
2022-10-22T21:21:33.256Z,86.14
2022-10-22T21:28:09.830Z,86.21
2022-10-22T21:30:56.468Z,86.14
2022-10-22T21:40:23.922Z,85.87
2022-10-22T21:43:52.560Z,85.95
2022-10-22T21:46:56.711Z,86.09
2022-10-22T21:49:41.876Z,86.12
2022-10-22T22:04:01.027Z,86.49
2022-10-22T22:06:33.123Z,86.95
2022-10-22T22:09:28.359Z,87.05
2022-10-22T22:12:40.783Z,87.01
2022-10-22T22:15:25.746Z,86.94
2022-10-22T22:18:04.410Z,87.46
2022-10-22T22:20:33.077Z,87.74
2022-10-22T22:28:12.687Z,87.79
2022-10-22T22:30:44.447Z,87.61
2022-10-22T22:34:06.169Z,87.46
2022-10-22T22:44:37.918Z,87.17
2022-10-22T22:47:05.674Z,87.45
2022-10-22T22:49:37.340Z,87.66
2022-10-22T22:55:01.661Z,87.79
2022-10-22T22:57:38.535Z,88.30
2022-10-22T23:00:21.620Z,88.35
2022-10-22T23:03:21.490Z,88.09
2022-10-22T23:05:59.521Z,88.05
2022-10-22T23:16:33.355Z,88.45
2022-10-22T23:19:09.922Z,88.79
2022-10-22T23:21:39.946Z,88.48
2022-10-22T23:24:37.881Z,88.77
2022-10-22T23:31:25.674Z,89.03
2022-10-22T23:34:34.579Z,89.02
2022-10-22T23:37:37.431Z,88.80
2022-10-22T23:40:09.573Z,88.70
2022-10-22T23:43:07.526Z,89.04
2022-10-22T23:50:03.304Z,89.50
2022-10-22T23:52:56.296Z,89.27
2022-10-22T23:56:22.788Z,89.24
2022-10-22T23:59:28.363Z,89.21
